createdAt,value
2019-01-22T00:01:12.955Z,75.35
2019-01-22T00:03:20.375Z,75.26
2019-01-22T00:05:27.697Z,75.00
2019-01-22T00:07:35.122Z,75.22
2019-01-22T00:09:42.589Z,75.33
2019-01-22T00:11:49.946Z,75.10
2019-01-22T00:13:57.731Z,74.96
2019-01-22T00:16:05.187Z,75.44
2019-01-22T00:18:12.562Z,74.97
2019-01-22T00:20:20.747Z,75.00
2019-01-22T00:22:28.079Z,75.03
2019-01-22T00:24:35.808Z,75.06
2019-01-22T00:26:43.439Z,75.08
2019-01-22T00:28:50.894Z,75.09
2019-01-22T00:30:58.603Z,75.03
2019-01-22T00:33:06.078Z,75.29
2019-01-22T00:35:13.454Z,75.21
2019-01-22T00:37:20.811Z,75.34
2019-01-22T00:39:28.466Z,74.97
2019-01-22T00:41:35.851Z,74.97
2019-01-22T00:43:43.276Z,75.07
2019-01-22T00:45:50.887Z,75.07
2019-01-22T00:47:58.029Z,75.42
2019-01-22T00:50:06.000Z,75.55
2019-01-22T00:52:13.855Z,75.48
2019-01-22T00:54:21.273Z,75.25
2019-01-22T00:56:28.748Z,75.15
2019-01-22T00:58:36.842Z,75.19
2019-01-22T01:00:44.215Z,75.31
2019-01-22T01:02:51.959Z,75.58
2019-01-22T01:04:59.391Z,75.78
2019-01-22T01:07:06.694Z,76.03
2019-01-22T01:09:13.994Z,76.21
2019-01-22T01:11:21.634Z,75.91
2019-01-22T01:13:29.143Z,76.00
2019-01-22T01:15:36.455Z,76.36
2019-01-22T01:17:44.074Z,76.33
2019-01-22T01:19:51.348Z,76.19
2019-01-22T01:21:58.729Z,76.08
2019-01-22T01:24:06.464Z,75.91
2019-01-22T01:26:14.321Z,75.93
2019-01-22T01:28:21.666Z,76.01
2019-01-22T01:30:29.347Z,76.12
2019-01-22T01:32:36.789Z,76.40
2019-01-22T01:34:44.530Z,76.02
2019-01-22T01:36:52.020Z,75.99
2019-01-22T01:38:59.304Z,76.31
2019-01-22T01:41:06.722Z,76.38
2019-01-22T01:43:14.334Z,76.20
2019-01-22T01:45:21.814Z,76.25
2019-01-22T01:47:31.410Z,76.35
2019-01-22T01:49:39.095Z,76.46
2019-01-22T01:51:46.519Z,76.63
2019-01-22T01:53:53.973Z,76.59
2019-01-22T01:56:01.414Z,76.67
2019-01-22T01:58:08.802Z,76.63
2019-01-22T02:00:21.818Z,76.59
2019-01-22T02:02:29.152Z,76.95
2019-01-22T02:04:36.363Z,76.60
2019-01-22T02:06:43.919Z,76.61
2019-01-22T02:08:51.415Z,76.78
2019-01-22T02:10:58.840Z,76.69
2019-01-22T02:13:14.251Z,77.00
2019-01-22T02:16:00.754Z,77.19
2019-01-22T02:19:09.728Z,76.99
2019-01-22T02:22:21.104Z,76.76
2019-01-22T02:25:16.472Z,77.02
2019-01-22T02:28:34.463Z,77.00
2019-01-22T02:31:43.180Z,77.04
2019-01-22T02:34:28.271Z,77.12
2019-01-22T02:37:31.931Z,77.23
2019-01-22T02:40:21.146Z,77.38
2019-01-22T02:43:42.621Z,77.41
2019-01-22T02:46:28.318Z,77.62
2019-01-22T02:49:44.593Z,77.33
2019-01-22T02:52:39.208Z,77.48
2019-01-22T02:55:04.512Z,77.37
2019-01-22T02:58:25.213Z,77.36
2019-01-22T03:01:16.643Z,77.84
2019-01-22T03:04:21.116Z,77.82
2019-01-22T03:07:01.963Z,77.35
2019-01-22T03:10:12.729Z,77.66
2019-01-22T03:12:58.292Z,77.63
2019-01-22T03:16:14.664Z,77.92
2019-01-22T03:18:57.386Z,77.65
2019-01-22T03:21:48.335Z,77.52
2019-01-22T03:25:05.646Z,77.71
2019-01-22T03:28:15.742Z,78.08
2019-01-22T03:31:19.829Z,78.05
2019-01-22T03:33:45.462Z,77.99
2019-01-22T03:36:39.717Z,77.92
2019-01-22T03:39:41.040Z,78.08
2019-01-22T03:42:55.694Z,78.01
2019-01-22T03:46:10.720Z,78.19
2019-01-22T03:49:25.671Z,78.13
2019-01-22T03:51:54.597Z,78.29
2019-01-22T03:55:12.014Z,78.35
2019-01-22T03:57:27.175Z,78.28
2019-01-22T03:59:34.622Z,78.35
2019-01-22T04:01:42.104Z,78.25
2019-01-22T04:03:49.598Z,78.28
2019-01-22T04:06:00.448Z,78.47
2019-01-22T04:08:08.800Z,78.42
2019-01-22T04:10:42.445Z,78.54
2019-01-22T04:12:49.826Z,78.57
2019-01-22T04:14:57.201Z,78.53
2019-01-22T04:17:04.615Z,78.41
2019-01-22T04:19:11.691Z,78.43
2019-01-22T04:21:21.660Z,78.44
2019-01-22T04:24:06.485Z,78.68
2019-01-22T04:27:06.802Z,78.55
2019-01-22T04:30:08.280Z,78.64
2019-01-22T04:32:57.938Z,78.55
2019-01-22T04:36:12.430Z,78.60
2019-01-22T04:38:55.244Z,78.52
2019-01-22T04:42:13.314Z,78.72
2019-01-22T04:45:09.921Z,78.95
2019-01-22T04:48:13.797Z,78.62
2019-01-22T04:51:29.320Z,78.70
2019-01-22T04:54:23.286Z,78.83
2019-01-22T04:57:07.844Z,78.67
2019-01-22T05:00:09.525Z,78.67
2019-01-22T05:03:24.905Z,78.49
2019-01-22T05:06:33.007Z,79.01
2019-01-22T05:09:32.538Z,78.54
2019-01-22T05:12:43.626Z,78.70
2019-01-22T05:16:33.342Z,78.60
2019-01-22T05:19:17.994Z,78.84
2019-01-22T05:22:13.475Z,78.78
2019-01-22T05:25:34.680Z,78.81
2019-01-22T05:28:45.137Z,78.86
2019-01-22T05:31:46.280Z,78.91
2019-01-22T05:34:44.153Z,78.93
2019-01-22T05:37:53.806Z,78.60
2019-01-22T05:41:32.043Z,78.88
2019-01-22T05:44:11.381Z,78.53
2019-01-22T05:47:01.939Z,78.90
2019-01-22T05:49:39.160Z,78.68
2019-01-22T05:52:17.748Z,78.78
2019-01-22T05:54:53.763Z,78.96
2019-01-22T05:57:10.347Z,78.81
2019-01-22T05:59:52.837Z,78.90
2019-01-22T06:02:09.666Z,78.95
2019-01-22T06:05:34.112Z,79.01
2019-01-22T06:08:24.492Z,78.61
2019-01-22T06:11:42.866Z,78.97
2019-01-22T06:14:26.906Z,78.70
2019-01-22T06:17:19.613Z,78.75
2019-01-22T06:20:31.018Z,78.88
2019-01-22T06:23:38.788Z,78.71
2019-01-22T06:26:12.837Z,78.77
2019-01-22T06:28:57.245Z,78.67
2019-01-22T06:31:20.212Z,78.45
2019-01-22T06:34:31.880Z,78.48
2019-01-22T06:37:17.716Z,78.36
2019-01-22T06:39:57.569Z,78.12
2019-01-22T06:43:35.343Z,78.27
2019-01-22T06:46:46.821Z,78.41
2019-01-22T06:49:21.097Z,78.75
2019-01-22T06:52:17.050Z,78.24
2019-01-22T06:55:39.764Z,78.54
2019-01-22T06:58:45.905Z,78.31
2019-01-22T07:02:05.844Z,78.46
2019-01-22T07:04:47.448Z,78.13
2019-01-22T07:08:07.793Z,78.15
2019-01-22T07:11:11.934Z,77.87
2019-01-22T07:13:58.978Z,77.96
2019-01-22T07:17:11.172Z,77.79
2019-01-22T07:20:05.122Z,77.57
2019-01-22T07:22:51.663Z,77.72
2019-01-22T07:26:00.772Z,77.22
2019-01-22T07:29:11.347Z,77.17
2019-01-22T07:32:05.709Z,76.73
2019-01-22T07:35:01.472Z,76.88
2019-01-22T07:38:19.555Z,76.58
2019-01-22T07:41:15.138Z,76.26
2019-01-22T07:44:06.531Z,75.86
2019-01-22T07:47:14.904Z,76.15
2019-01-22T07:50:16.894Z,75.96
2019-01-22T07:52:46.660Z,75.94
2019-01-22T07:55:58.824Z,75.90
2019-01-22T07:58:57.173Z,75.64
2019-01-22T08:02:02.918Z,75.56
2019-01-22T08:05:26.361Z,75.50
2019-01-22T08:08:21.040Z,75.54
2019-01-22T08:10:55.875Z,75.29
2019-01-22T08:13:56.144Z,74.98
2019-01-22T08:17:13.762Z,75.52
2019-01-22T08:20:06.636Z,75.79
2019-01-22T08:23:21.168Z,75.51
2019-01-22T08:26:09.573Z,75.75
2019-01-22T08:28:35.327Z,75.49
2019-01-22T08:31:46.173Z,74.86
2019-01-22T08:34:48.169Z,74.86
2019-01-22T08:37:50.053Z,74.74
2019-01-22T08:40:44.355Z,74.90
2019-01-22T08:43:41.322Z,74.87
2019-01-22T08:46:55.649Z,74.49
2019-01-22T08:50:17.724Z,74.59
2019-01-22T08:53:18.239Z,73.88
2019-01-22T08:56:33.379Z,73.98
2019-01-22T08:59:42.731Z,73.48
2019-01-22T09:02:38.216Z,73.92
2019-01-22T09:05:27.652Z,73.38
2019-01-22T09:08:37.802Z,72.89
2019-01-22T09:12:11.809Z,72.64
2019-01-22T09:15:11.794Z,72.41
2019-01-22T09:18:10.879Z,72.65
2019-01-22T09:21:01.605Z,72.09
2019-01-22T09:24:23.381Z,72.66
2019-01-22T09:27:48.975Z,71.84
2019-01-22T09:30:41.004Z,71.58
2019-01-22T09:33:17.294Z,71.54
2019-01-22T09:36:13.153Z,71.28
2019-01-22T09:38:20.726Z,71.41
2019-01-22T09:40:28.193Z,71.17
2019-01-22T09:42:35.693Z,71.37
2019-01-22T09:44:43.114Z,71.70
2019-01-22T09:46:50.774Z,71.62
2019-01-22T09:48:58.224Z,71.13
2019-01-22T09:51:05.634Z,71.20
2019-01-22T09:53:13.471Z,71.31
2019-01-22T09:55:22.593Z,70.81
2019-01-22T09:57:30.038Z,70.71
2019-01-22T09:59:37.485Z,70.32
2019-01-22T10:01:45.039Z,70.16
2019-01-22T10:03:52.441Z,70.37
2019-01-22T10:05:59.937Z,70.55
2019-01-22T10:08:07.400Z,69.44
2019-01-22T10:10:17.957Z,69.81
2019-01-22T10:12:25.782Z,69.39
2019-01-22T10:14:33.337Z,68.73
2019-01-22T10:16:40.767Z,68.58
2019-01-22T10:18:48.744Z,68.15
2019-01-22T10:20:56.291Z,67.89
2019-01-22T10:23:03.685Z,67.49
2019-01-22T10:25:11.519Z,67.78
2019-01-22T10:27:19.017Z,67.89
2019-01-22T10:29:26.345Z,67.68
2019-01-22T10:31:33.676Z,66.08
2019-01-22T10:33:41.066Z,65.87
2019-01-22T10:35:48.561Z,64.98
2019-01-22T10:37:55.883Z,65.49
2019-01-22T10:40:04.078Z,64.66
2019-01-22T10:42:11.570Z,64.90
2019-01-22T10:44:19.183Z,65.46
2019-01-22T10:46:26.525Z,65.16
2019-01-22T10:48:33.891Z,64.07
2019-01-22T10:50:41.306Z,63.74
2019-01-22T10:52:48.805Z,63.53
2019-01-22T10:54:56.214Z,64.24
2019-01-22T10:57:03.722Z,64.72
2019-01-22T10:59:11.034Z,63.24
2019-01-22T11:01:18.538Z,63.17
2019-01-22T11:03:26.119Z,63.74
2019-01-22T11:05:41.808Z,63.72
2019-01-22T11:07:49.254Z,61.67
2019-01-22T11:09:56.677Z,61.53
2019-01-22T11:12:04.074Z,61.58
2019-01-22T11:14:11.549Z,62.71
2019-01-22T11:16:18.984Z,61.94
2019-01-22T11:18:26.417Z,61.08
2019-01-22T11:20:33.854Z,60.77
2019-01-22T11:22:41.294Z,60.84
2019-01-22T11:24:52.741Z,60.09
2019-01-22T11:26:57.951Z,60.04
2019-01-22T11:29:05.404Z,60.46
2019-01-22T11:31:12.884Z,60.35
2019-01-22T11:33:20.279Z,60.18
2019-01-22T11:35:27.474Z,59.78
2019-01-22T11:37:34.983Z,59.75
2019-01-22T11:39:42.205Z,60.49
2019-01-22T11:41:49.982Z,60.14
2019-01-22T11:43:57.292Z,61.05
2019-01-22T11:46:04.770Z,60.61
2019-01-22T11:48:13.588Z,60.78
2019-01-22T11:50:21.824Z,62.12
2019-01-22T11:52:29.309Z,61.48
2019-01-22T11:54:36.839Z,61.20
2019-01-22T11:56:44.243Z,61.89
2019-01-22T11:58:51.651Z,61.32
2019-01-22T12:01:02.566Z,61.50
2019-01-22T12:03:10.092Z,61.48
2019-01-22T12:05:17.483Z,61.71
2019-01-22T12:07:24.879Z,61.44
2019-01-22T12:09:32.238Z,61.19
2019-01-22T12:11:39.575Z,61.83
2019-01-22T12:13:53.854Z,61.97
2019-01-22T12:15:56.172Z,62.54
2019-01-22T12:18:03.546Z,62.15
2019-01-22T12:20:17.384Z,62.05
2019-01-22T12:22:25.113Z,62.08
2019-01-22T12:24:32.454Z,62.26
2019-01-22T12:26:40.108Z,62.42
2019-01-22T12:28:47.539Z,62.45
2019-01-22T12:30:54.809Z,62.43
2019-01-22T12:33:02.609Z,62.36
2019-01-22T12:35:10.973Z,62.42
2019-01-22T12:37:18.779Z,62.74
2019-01-22T12:39:26.189Z,63.06
2019-01-22T12:41:33.588Z,63.41
2019-01-22T12:43:41.434Z,62.64
2019-01-22T12:45:49.065Z,63.42
2019-01-22T12:47:56.342Z,63.82
2019-01-22T12:50:03.805Z,63.38
2019-01-22T12:52:11.469Z,62.19
2019-01-22T12:54:18.925Z,62.85
2019-01-22T12:56:26.561Z,62.77
2019-01-22T12:58:33.942Z,61.61
2019-01-22T13:00:41.270Z,61.35
2019-01-22T13:02:48.592Z,61.00
2019-01-22T13:04:56.109Z,60.94
2019-01-22T13:07:03.547Z,60.77
2019-01-22T13:09:11.011Z,61.14
2019-01-22T13:11:18.425Z,61.79
2019-01-22T13:13:26.028Z,61.40
2019-01-22T13:15:33.436Z,61.07
2019-01-22T13:17:40.901Z,60.74
2019-01-22T13:19:48.353Z,60.98
2019-01-22T13:21:55.702Z,60.77
2019-01-22T13:24:03.279Z,60.62
2019-01-22T13:26:11.635Z,60.19
2019-01-22T13:28:19.301Z,60.55
2019-01-22T13:30:26.836Z,61.31
2019-01-22T13:32:34.581Z,62.04
2019-01-22T13:34:42.037Z,61.67
2019-01-22T13:36:49.461Z,61.95
2019-01-22T13:38:56.733Z,61.53
2019-01-22T13:41:04.030Z,60.86
2019-01-22T13:43:12.262Z,61.71
2019-01-22T13:45:23.085Z,60.32
2019-01-22T13:47:30.784Z,59.89
2019-01-22T13:49:38.282Z,60.15
2019-01-22T13:51:45.698Z,60.19
2019-01-22T13:53:54.360Z,61.40
2019-01-22T13:56:02.246Z,61.90
2019-01-22T13:58:09.640Z,61.23
2019-01-22T14:00:19.775Z,61.55
2019-01-22T14:02:27.156Z,61.59
2019-01-22T14:04:34.828Z,62.73
2019-01-22T14:06:42.367Z,62.43
2019-01-22T14:08:49.834Z,63.19
2019-01-22T14:10:57.330Z,62.89
2019-01-22T14:13:04.721Z,63.65
2019-01-22T14:15:19.518Z,63.59
2019-01-22T14:17:26.909Z,64.00
2019-01-22T14:19:34.382Z,64.29
2019-01-22T14:21:41.863Z,64.25
2019-01-22T14:23:49.245Z,64.30
2019-01-22T14:25:56.798Z,65.06
2019-01-22T14:28:04.137Z,64.74
2019-01-22T14:30:21.831Z,64.69
2019-01-22T14:32:29.579Z,64.84
2019-01-22T14:34:37.183Z,65.24
2019-01-22T14:36:44.710Z,65.46
2019-01-22T14:38:52.137Z,65.72
2019-01-22T14:40:59.990Z,65.99
2019-01-22T14:43:07.488Z,66.46
2019-01-22T14:45:15.712Z,66.62
2019-01-22T14:47:23.589Z,66.03
2019-01-22T14:49:31.183Z,65.54
2019-01-22T14:51:38.655Z,66.36
2019-01-22T14:53:46.248Z,66.29
2019-01-22T14:55:54.030Z,66.90
2019-01-22T14:58:01.284Z,66.34
2019-01-22T15:00:22.615Z,66.60
2019-01-22T15:02:30.380Z,66.91
2019-01-22T15:04:37.781Z,67.14
2019-01-22T15:06:45.490Z,67.17
2019-01-22T15:08:53.589Z,67.61
2019-01-22T15:11:01.901Z,67.60
2019-01-22T15:13:09.699Z,67.45
2019-01-22T15:15:18.719Z,67.11
2019-01-22T15:17:26.677Z,67.63
2019-01-22T15:19:34.158Z,67.03
2019-01-22T15:21:41.742Z,67.46
2019-01-22T15:23:49.195Z,67.24
2019-01-22T15:25:56.931Z,67.57
2019-01-22T15:28:04.395Z,67.71
2019-01-22T15:30:16.066Z,67.16
2019-01-22T15:32:23.615Z,67.39
2019-01-22T15:34:31.096Z,67.30
2019-01-22T15:36:39.181Z,67.38
2019-01-22T15:38:47.342Z,67.44
2019-01-22T15:40:55.091Z,67.85
2019-01-22T15:43:02.641Z,68.23
2019-01-22T15:45:10.200Z,67.80
2019-01-22T15:47:17.647Z,68.42
2019-01-22T15:49:25.579Z,68.59
2019-01-22T15:51:33.190Z,68.45
2019-01-22T15:53:40.823Z,68.76
2019-01-22T15:55:48.408Z,68.79
2019-01-22T15:57:56.242Z,68.61
2019-01-22T16:00:03.768Z,69.04
2019-01-22T16:02:11.252Z,69.19
2019-01-22T16:04:18.718Z,69.13
2019-01-22T16:06:26.275Z,69.06
2019-01-22T16:08:33.757Z,69.51
2019-01-22T16:10:41.218Z,69.58
2019-01-22T16:12:48.854Z,69.32
2019-01-22T16:14:56.821Z,69.80
2019-01-22T16:17:04.316Z,69.48
2019-01-22T16:19:11.740Z,69.70
2019-01-22T16:21:19.261Z,69.94
2019-01-22T16:23:26.939Z,70.04
2019-01-22T16:25:34.912Z,70.17
2019-01-22T16:27:42.622Z,69.91
2019-01-22T16:29:50.103Z,70.47
2019-01-22T16:31:57.692Z,70.15
2019-01-22T16:34:05.135Z,70.51
2019-01-22T16:36:12.676Z,70.16
2019-01-22T16:38:20.097Z,70.36
2019-01-22T16:40:27.440Z,70.67
2019-01-22T16:42:34.874Z,70.59
2019-01-22T16:44:42.658Z,70.48
2019-01-22T16:46:50.293Z,70.37
2019-01-22T16:48:58.124Z,70.40
2019-01-22T16:51:05.836Z,70.20
2019-01-22T16:53:21.884Z,70.16
2019-01-22T16:55:35.101Z,69.75
2019-01-22T16:57:42.797Z,70.51
2019-01-22T16:59:49.989Z,70.36
2019-01-22T17:01:57.143Z,70.12
2019-01-22T17:04:04.264Z,70.40
2019-01-22T17:06:11.660Z,70.59
2019-01-22T17:08:19.212Z,70.49
2019-01-22T17:10:26.389Z,70.44
2019-01-22T17:12:33.478Z,70.47
2019-01-22T17:14:41.307Z,70.59
2019-01-22T17:16:48.431Z,70.42
2019-01-22T17:18:55.872Z,70.45
2019-01-22T17:21:03.079Z,70.35
2019-01-22T17:23:16.332Z,70.74
2019-01-22T17:25:19.196Z,70.73
2019-01-22T17:27:26.897Z,70.89
2019-01-22T17:29:34.833Z,70.78
2019-01-22T17:32:04.564Z,70.92
2019-01-22T17:34:09.992Z,70.83
2019-01-22T17:36:17.422Z,70.97
2019-01-22T17:38:25.630Z,71.24
2019-01-22T17:40:33.324Z,71.30
2019-01-22T17:42:41.054Z,70.92
2019-01-22T17:44:48.720Z,71.37
2019-01-22T17:46:56.714Z,71.46
2019-01-22T17:49:04.214Z,71.77
2019-01-22T17:51:11.415Z,71.64
2019-01-22T17:53:19.277Z,71.58
2019-01-22T17:55:26.764Z,71.78
2019-01-22T17:57:34.319Z,72.08
2019-01-22T17:59:42.019Z,71.87
2019-01-22T18:01:49.486Z,72.10
2019-01-22T18:03:57.007Z,72.26
2019-01-22T18:06:04.806Z,72.03
2019-01-22T18:08:12.219Z,72.43
2019-01-22T18:10:19.831Z,72.20
2019-01-22T18:12:27.619Z,72.19
2019-01-22T18:14:35.056Z,72.45
2019-01-22T18:16:42.695Z,72.55
2019-01-22T18:18:50.077Z,72.69
2019-01-22T18:20:57.534Z,72.42
2019-01-22T18:23:05.234Z,72.74
2019-01-22T18:25:12.716Z,73.02
2019-01-22T18:27:20.773Z,72.96
2019-01-22T18:29:28.548Z,72.71
2019-01-22T18:31:35.861Z,72.80
2019-01-22T18:33:43.336Z,72.74
2019-01-22T18:35:50.686Z,73.06
2019-01-22T18:37:58.119Z,72.72
2019-01-22T18:40:05.918Z,72.86
2019-01-22T18:42:13.355Z,72.94
2019-01-22T18:44:20.766Z,72.65
2019-01-22T18:46:28.371Z,73.00
2019-01-22T18:48:35.713Z,73.30
2019-01-22T18:50:43.487Z,73.34
2019-01-22T18:52:51.075Z,73.51
2019-01-22T18:54:59.564Z,73.91
2019-01-22T18:57:07.299Z,73.77
2019-01-22T18:59:14.932Z,73.89
2019-01-22T19:01:22.638Z,74.07
2019-01-22T19:03:30.610Z,74.25
2019-01-22T19:05:38.062Z,74.33
2019-01-22T19:07:45.705Z,74.53
2019-01-22T19:09:53.364Z,74.79
2019-01-22T19:12:01.021Z,74.77
2019-01-22T19:14:08.533Z,74.77
2019-01-22T19:16:15.904Z,74.88
2019-01-22T19:18:23.403Z,74.39
2019-01-22T19:20:30.989Z,74.55
2019-01-22T19:22:38.694Z,74.61
2019-01-22T19:24:46.160Z,74.56
2019-01-22T19:26:53.616Z,74.70
2019-01-22T19:29:01.208Z,74.61
2019-01-22T19:31:09.340Z,74.62
2019-01-22T19:33:16.821Z,74.49
2019-01-22T19:35:24.271Z,74.85
2019-01-22T19:37:31.907Z,74.34
2019-01-22T19:39:40.933Z,74.31
2019-01-22T19:41:48.742Z,74.72
2019-01-22T19:43:56.039Z,74.42
2019-01-22T19:46:03.610Z,74.13
2019-01-22T19:48:11.269Z,74.24
2019-01-22T19:50:19.429Z,74.22
2019-01-22T19:52:26.964Z,74.30
2019-01-22T19:54:34.439Z,73.96
2019-01-22T19:56:42.214Z,74.63
2019-01-22T19:58:49.929Z,74.36
2019-01-22T20:00:58.332Z,74.06
2019-01-22T20:03:06.577Z,74.10
2019-01-22T20:05:14.068Z,74.39
2019-01-22T20:07:21.883Z,74.42
2019-01-22T20:09:29.736Z,74.64
2019-01-22T20:11:37.659Z,74.43
2019-01-22T20:13:45.215Z,74.28
2019-01-22T20:15:52.776Z,74.33
2019-01-22T20:18:00.059Z,74.17
2019-01-22T20:20:11.407Z,74.48
2019-01-22T20:22:18.861Z,74.35
2019-01-22T20:24:26.217Z,74.59
2019-01-22T20:26:35.532Z,74.82
2019-01-22T20:28:47.082Z,74.69
2019-01-22T20:30:54.613Z,74.38
2019-01-22T20:33:02.757Z,74.65
2019-01-22T20:35:10.200Z,74.82
2019-01-22T20:37:17.822Z,74.92
2019-01-22T20:39:25.416Z,74.71
2019-01-22T20:41:32.965Z,75.06
2019-01-22T20:43:40.438Z,74.86
2019-01-22T20:45:48.158Z,74.97
2019-01-22T20:47:55.871Z,74.87
2019-01-22T20:50:03.577Z,74.42
2019-01-22T20:52:11.111Z,75.04
2019-01-22T20:54:18.539Z,75.01
2019-01-22T20:56:25.770Z,75.26
2019-01-22T20:58:40.396Z,75.26
2019-01-22T21:00:43.509Z,75.71
2019-01-22T21:02:51.544Z,75.56
2019-01-22T21:04:59.938Z,75.39
2019-01-22T21:07:07.503Z,76.01
2019-01-22T21:09:15.284Z,75.72
2019-01-22T21:11:23.707Z,75.66
2019-01-22T21:13:31.524Z,75.80
2019-01-22T21:15:38.997Z,76.38
2019-01-22T21:17:46.462Z,76.63
2019-01-22T21:19:54.176Z,76.69
2019-01-22T21:22:01.830Z,76.84
2019-01-22T21:24:09.776Z,76.98
2019-01-22T21:26:22.157Z,77.16
2019-01-22T21:28:29.679Z,77.03
2019-01-22T21:30:38.642Z,77.01
2019-01-22T21:32:46.154Z,76.61
2019-01-22T21:34:53.626Z,76.80
2019-01-22T21:37:01.681Z,77.01
2019-01-22T21:39:10.073Z,77.41
2019-01-22T21:41:17.500Z,76.81
2019-01-22T21:43:25.547Z,76.76
2019-01-22T21:45:33.100Z,76.63
2019-01-22T21:47:40.583Z,76.78
2019-01-22T21:49:48.411Z,77.26
2019-01-22T21:51:55.763Z,76.74
2019-01-22T21:54:03.550Z,76.58
2019-01-22T21:56:11.143Z,76.62
2019-01-22T21:58:18.889Z,76.59
2019-01-22T22:00:27.827Z,76.68
2019-01-22T22:02:35.416Z,76.46
2019-01-22T22:04:42.931Z,76.23
2019-01-22T22:06:50.381Z,76.06
2019-01-22T22:08:57.871Z,76.33
2019-01-22T22:11:05.206Z,77.01
2019-01-22T22:13:12.865Z,76.76
2019-01-22T22:15:22.547Z,76.82
2019-01-22T22:17:29.942Z,76.96
2019-01-22T22:19:37.530Z,77.13
2019-01-22T22:21:45.354Z,77.06
2019-01-22T22:23:52.849Z,77.04
2019-01-22T22:26:00.037Z,76.79
2019-01-22T22:28:07.539Z,77.34
2019-01-22T22:30:27.431Z,77.48
2019-01-22T22:32:35.986Z,77.58
2019-01-22T22:34:43.746Z,77.71
2019-01-22T22:36:51.195Z,77.54
2019-01-22T22:38:58.563Z,77.97
2019-01-22T22:41:06.502Z,77.54
2019-01-22T22:43:14.656Z,77.13
2019-01-22T22:45:24.172Z,77.13
2019-01-22T22:47:31.962Z,77.50
2019-01-22T22:49:39.675Z,76.82
2019-01-22T22:51:47.023Z,76.93
2019-01-22T22:53:54.860Z,77.21
2019-01-22T22:56:02.347Z,76.91
2019-01-22T22:58:09.713Z,77.25
2019-01-22T23:00:53.033Z,77.04
2019-01-22T23:03:00.855Z,77.38
2019-01-22T23:05:08.342Z,76.85
2019-01-22T23:07:15.853Z,77.04
2019-01-22T23:09:23.333Z,76.76
2019-01-22T23:11:30.775Z,76.72
2019-01-22T23:13:38.024Z,76.52
2019-01-22T23:15:45.548Z,76.49
2019-01-22T23:17:53.075Z,76.57
2019-01-22T23:20:00.525Z,76.84
2019-01-22T23:22:07.995Z,77.00
2019-01-22T23:24:15.296Z,76.88
2019-01-22T23:26:22.562Z,77.14
2019-01-22T23:28:30.050Z,77.33
2019-01-22T23:30:37.433Z,77.46
2019-01-22T23:32:44.957Z,77.39
2019-01-22T23:34:52.186Z,77.01
2019-01-22T23:36:59.683Z,76.98
2019-01-22T23:39:07.386Z,77.07
2019-01-22T23:41:14.765Z,76.95
2019-01-22T23:43:21.738Z,76.68
2019-01-22T23:45:29.175Z,76.62
2019-01-22T23:47:36.649Z,76.67
2019-01-22T23:49:44.076Z,76.36
2019-01-22T23:51:52.731Z,76.43
2019-01-22T23:54:00.078Z,76.39
2019-01-22T23:56:07.459Z,76.22
2019-01-22T23:58:15.252Z,76.20
